Time;durP1;ratioP1;P1;durP2;ratioP2;P2;SDS_P1;SDS_P2;PMS_P1;PMS_P2;Temp;Humidity;BMP_temperature;BMP_pressure;BME280_temperature;BME280_humidity;BME280_pressure;Samples;Min_cycle;Max_cycle;Signal;HPM_P1;HPM_P2
2023/03/04 00:01:41;;;;;;;22.63;14.95;;;;;;;4.98;100.00;62505.41;5037653;28;20219;-80
2023/03/04 00:04:08;;;;;;;24.55;15.70;;;;;;;5.07;100.00;62517.72;5033636;28;20210;-80
2023/03/04 00:06:35;;;;;;;21.88;14.30;;;;;;;5.13;100.00;62523.91;5035671;28;20218;-79
2023/03/04 00:09:03;;;;;;;25.83;15.30;;;;;;;5.19;100.00;62534.63;5032601;28;20278;-81
2023/03/04 00:11:30;;;;;;;26.40;16.98;;;;;;;5.10;100.00;62523.34;5034535;28;20439;-79
2023/03/04 00:13:58;;;;;;;26.27;16.92;;;;;;;5.06;100.00;62518.69;5023050;28;20233;-80
2023/03/04 00:16:26;;;;;;;29.10;17.52;;;;;;;4.89;100.00;62501.72;5018756;28;20219;-80
2023/03/04 00:18:54;;;;;;;25.08;15.85;;;;;;;5.02;100.00;62507.03;5034517;28;20195;-78
2023/03/04 00:21:21;;;;;;;30.23;16.75;;;;;;;5.12;100.00;62520.34;5033484;28;20292;-80
2023/03/04 00:23:49;;;;;;;27.52;16.83;;;;;;;5.17;100.00;62530.03;5034240;28;20265;-80
2023/03/04 00:26:16;;;;;;;25.50;15.57;;;;;;;5.18;100.00;62528.53;5024761;28;20214;-81
2023/03/04 00:28:43;;;;;;;21.95;14.82;;;;;;;5.15;100.00;62530.50;5030311;28;20209;-79
2023/03/04 00:31:10;;;;;;;28.83;16.75;;;;;;;5.19;100.00;62532.63;5030633;28;20222;-79
2023/03/04 00:33:39;;;;;;;28.42;17.08;;;;;;;5.26;100.00;62536.78;5029485;28;20249;-81
2023/03/04 00:36:08;;;;;;;28.48;17.05;;;;;;;5.41;100.00;62550.22;5034134;28;20229;-81
2023/03/04 00:38:35;;;;;;;26.85;16.58;;;;;;;5.29;100.00;62539.88;5025463;28;20199;-79
2023/03/04 00:41:01;;;;;;;26.45;17.17;;;;;;;5.20;100.00;62528.06;5029521;28;20209;-79
2023/03/04 00:43:28;;;;;;;23.95;15.88;;;;;;;5.06;100.00;62513.66;5030237;28;20199;-79
2023/03/04 00:45:55;;;;;;;25.83;16.40;;;;;;;4.95;100.00;62505.38;5030198;28;20222;-79
2023/03/04 00:48:22;;;;;;;26.13;17.00;;;;;;;4.90;100.00;62499.72;5029515;28;20191;-79
2023/03/04 00:50:52;;;;;;;26.48;16.52;;;;;;;4.96;100.00;62508.91;5030280;28;20375;-80
2023/03/04 00:53:22;;;;;;;30.63;17.55;;;;;;;4.93;100.00;62500.78;5030412;28;20234;-80
2023/03/04 00:55:50;;;;;;;29.08;17.08;;;;;;;4.95;100.00;62502.34;5032297;28;20221;-79
2023/03/04 00:58:17;;;;;;;28.17;16.20;;;;;;;4.99;100.00;62506.97;5029941;28;20498;-80
2023/03/04 01:00:44;;;;;;;26.20;16.55;;;;;;;5.01;100.00;62514.06;5033333;28;20262;-79
2023/03/04 01:03:10;;;;;;;27.92;15.77;;;;;;;4.93;100.00;62505.31;5017667;28;20266;-80
2023/03/04 01:05:37;;;;;;;29.52;16.67;;;;;;;4.94;100.00;62503.81;5017851;28;20205;-81
2023/03/04 01:08:05;;;;;;;26.85;16.40;;;;;;;4.98;100.00;62508.47;5018614;28;20239;-80
2023/03/04 01:10:33;;;;;;;30.30;17.58;;;;;;;5.04;100.00;62516.66;5026070;28;20229;-79
2023/03/04 01:13:00;;;;;;;29.42;15.98;;;;;;;5.08;100.00;62520.75;5031404;28;20261;-79
2023/03/04 01:15:27;;;;;;;27.25;17.13;;;;;;;5.09;100.00;62516.75;5029205;28;20202;-80
2023/03/04 01:17:54;;;;;;;30.15;18.05;;;;;;;5.05;100.00;62515.69;5032678;28;20386;-79
2023/03/04 01:20:22;;;;;;;29.48;16.13;;;;;;;4.95;100.00;62504.84;5030571;28;20250;-79
2023/03/04 01:22:49;;;;;;;28.63;17.80;;;;;;;5.04;100.00;62517.16;5030588;28;20426;-80
2023/03/04 01:25:15;;;;;;;26.15;17.17;;;;;;;5.09;100.00;62519.28;5028895;28;20205;-80
2023/03/04 01:27:44;;;;;;;33.58;17.60;;;;;;;5.03;100.00;62516.13;5030626;28;20223;-79
2023/03/04 01:30:12;;;;;;;29.60;18.42;;;;;;;4.98;100.00;62510.47;5029083;28;20260;-78
2023/03/04 01:32:39;;;;;;;29.63;18.52;;;;;;;4.93;100.00;62502.78;5026756;28;20475;-79
2023/03/04 01:35:07;;;;;;;35.63;19.05;;;;;;;4.80;100.00;62494.97;5031338;28;20198;-79
2023/03/04 01:37:34;;;;;;;34.80;19.15;;;;;;;4.93;100.00;62505.31;5028617;28;20237;-80
2023/03/04 01:40:01;;;;;;;35.78;19.00;;;;;;;4.86;100.00;62495.59;5029095;28;20274;-79
2023/03/04 01:42:32;;;;;;;31.17;19.33;;;;;;;4.72;100.00;62484.22;5028125;28;20269;-79
2023/03/04 01:45:00;;;;;;;33.13;18.58;;;;;;;4.85;100.00;62497.09;5028561;28;20367;-79
2023/03/04 01:47:30;;;;;;;29.42;17.60;;;;;;;4.93;100.00;62503.31;5027993;28;20242;-80
2023/03/04 01:49:58;;;;;;;31.63;16.83;;;;;;;4.75;100.00;62487.31;5017296;28;20222;-79
2023/03/04 01:52:27;;;;;;;25.25;15.40;;;;;;;4.76;100.00;62485.81;5029628;28;20269;-79
2023/03/04 01:54:55;;;;;;;28.40;16.33;;;;;;;4.90;100.00;62500.22;5028404;28;20241;-80
2023/03/04 01:57:24;;;;;;;24.98;15.05;;;;;;;4.93;100.00;62503.31;5028878;28;20543;-79
2023/03/04 02:00:18;;;;;;;23.80;15.05;;;;;;;5.02;100.00;62515.09;5029463;28;20199;-80
2023/03/04 02:02:44;;;;;;;21.70;14.10;;;;;;;4.68;100.00;62482.63;5030688;28;20219;-79
2023/03/04 02:05:12;;;;;;;22.60;14.60;;;;;;;4.64;100.00;62476.00;5029891;28;20804;-80
2023/03/04 02:07:39;;;;;;;25.20;14.82;;;;;;;4.63;100.00;62472.94;5031948;28;20385;-80
2023/03/04 02:10:07;;;;;;;24.60;14.88;;;;;;;4.54;100.00;62466.19;5027329;28;20202;-81
2023/03/04 02:12:34;;;;;;;25.10;15.35;;;;;;;4.45;100.00;62453.91;5032684;28;20564;-80
2023/03/04 02:15:01;;;;;;;25.02;13.52;;;;;;;4.39;100.00;62450.75;5030328;28;20237;-80
2023/03/04 02:17:29;;;;;;;28.42;15.02;;;;;;;4.49;100.00;62458.53;5027236;28;20286;-79
2023/03/04 02:20:02;;;;;;;24.00;14.23;;;;;;;4.52;100.00;62464.13;5027624;28;20197;-79
2023/03/04 02:22:29;;;;;;;24.80;15.50;;;;;;;4.60;100.00;62469.88;5028330;28;20393;-78
2023/03/04 02:25:00;;;;;;;28.70;15.73;;;;;;;4.69;100.00;62476.59;5028061;28;20202;-80
2023/03/04 02:27:29;;;;;;;24.02;15.57;;;;;;;4.90;100.00;62500.22;5027043;28;20215;-79
2023/03/04 02:29:56;;;;;;;23.90;14.63;;;;;;;4.97;100.00;62504.91;5028093;28;20450;-79
2023/03/04 02:32:23;;;;;;;20.35;14.27;;;;;;;5.06;100.00;62519.22;5025026;28;20265;-78
2023/03/04 02:34:51;;;;;;;23.70;14.23;;;;;;;5.09;100.00;62521.81;5027881;28;20424;-78
2023/03/04 02:37:20;;;;;;;25.67;16.15;;;;;;;5.07;100.00;62522.78;5025474;28;20230;-79
2023/03/04 02:39:49;;;;;;;23.17;14.65;;;;;;;5.01;100.00;62516.59;5029502;28;20205;-79
2023/03/04 02:42:17;;;;;;;20.77;13.63;;;;;;;4.98;100.00;62513.00;5028621;28;20234;-80
2023/03/04 02:44:48;;;;;;;25.05;14.23;;;;;;;4.88;100.00;62495.13;5025942;28;20213;-78
2023/03/04 02:47:17;;;;;;;23.95;14.45;;;;;;;4.84;100.00;62493.53;5027685;28;20245;-79
2023/03/04 02:49:45;;;;;;;24.67;15.05;;;;;;;4.76;100.00;62485.31;5028873;28;20203;-78
2023/03/04 02:52:14;;;;;;;25.60;14.55;;;;;;;4.74;100.00;62486.28;5027434;28;20242;-79
2023/03/04 02:54:41;;;;;;;27.02;15.10;;;;;;;4.68;100.00;62480.63;5026346;28;20237;-79
2023/03/04 02:57:10;;;;;;;26.42;15.27;;;;;;;4.72;100.00;62484.22;5028965;28;20215;-79
2023/03/04 02:59:38;;;;;;;25.02;15.65;;;;;;;4.88;100.00;62497.66;5028325;28;20238;-79
2023/03/04 03:02:08;;;;;;;30.25;15.35;;;;;;;4.89;100.00;62504.25;5027172;28;20282;-80
2023/03/04 03:04:37;;;;;;;30.33;16.00;;;;;;;4.82;100.00;62491.97;5024652;28;20230;-80
2023/03/04 03:07:04;;;;;;;25.77;15.82;;;;;;;4.80;100.00;62487.41;5026950;28;20218;-81
2023/03/04 03:09:31;;;;;;;30.23;15.30;;;;;;;4.78;100.00;62490.38;5025087;28;20203;-79
2023/03/04 03:11:58;;;;;;;23.38;14.43;;;;;;;4.82;100.00;62491.47;5025952;28;20226;-79
2023/03/04 03:14:25;;;;;;;29.00;17.02;;;;;;;4.72;100.00;62484.22;5028647;28;20246;-79
2023/03/04 03:16:52;;;;;;;35.30;18.10;;;;;;;4.69;100.00;62478.63;5027725;28;20442;-79
2023/03/04 03:19:20;;;;;;;29.00;15.07;;;;;;;4.65;100.00;62471.97;5024921;28;20253;-80
2023/03/04 03:21:47;;;;;;;23.58;14.35;;;;;;;4.64;100.00;62476.50;5027673;28;20246;-79
2023/03/04 03:24:14;;;;;;;22.58;14.35;;;;;;;4.65;100.00;62477.53;5027055;28;20233;-79
2023/03/04 03:26:41;;;;;;;27.98;14.85;;;;;;;4.64;100.00;62476.00;5027289;28;20249;-80
2023/03/04 03:29:08;;;;;;;26.15;15.07;;;;;;;4.60;100.00;62469.34;5029477;28;20268;-80
2023/03/04 03:31:35;;;;;;;28.60;16.98;;;;;;;4.58;100.00;62465.28;5026326;28;20229;-80
2023/03/04 03:34:02;;;;;;;23.65;14.80;;;;;;;4.57;100.00;62466.75;5025095;28;20281;-79
2023/03/04 03:36:30;;;;;;;23.63;13.77;;;;;;;4.52;100.00;62458.59;5014020;28;20258;-79
2023/03/04 03:38:57;;;;;;;25.33;14.30;;;;;;;4.46;100.00;62455.44;5008432;28;20195;-79
2023/03/04 03:41:23;;;;;;;21.80;14.38;;;;;;;4.38;100.00;62447.19;5022428;28;20268;-80
2023/03/04 03:43:50;;;;;;;27.35;15.65;;;;;;;4.36;100.00;62445.16;5028031;28;20265;-78
2023/03/04 03:46:17;;;;;;;23.70;14.30;;;;;;;4.40;100.00;62448.75;5027530;28;20246;-78
2023/03/04 03:48:46;;;;;;;33.63;18.90;;;;;;;4.37;100.00;62448.69;5023397;28;20535;-79
2023/03/04 03:51:13;;;;;;;20.30;12.63;;;;;;;4.35;100.00;62446.66;5026299;28;20261;-79
2023/03/04 03:53:41;;;;;;;17.33;11.32;;;;;;;4.25;100.00;62430.78;5024281;28;20230;-78
2023/03/04 03:56:08;;;;;;;15.25;10.43;;;;;;;4.07;100.00;62417.31;5027277;28;20269;-79
2023/03/04 03:58:35;;;;;;;16.67;10.70;;;;;;;3.95;100.00;62399.94;5022251;28;20202;-78
2023/03/04 04:01:02;;;;;;;16.63;10.85;;;;;;;3.86;100.00;62391.19;5027288;28;20269;-78
2023/03/04 04:03:29;;;;;;;16.70;10.48;;;;;;;3.81;100.00;62388.59;5028302;28;20523;-79
2023/03/04 04:05:57;;;;;;;17.98;9.93;;;;;;;3.69;100.00;62376.25;5027157;28;20206;-79
2023/03/04 04:08:24;;;;;;;20.17;10.27;;;;;;;3.64;100.00;62373.09;5030353;28;20475;-79
2023/03/04 04:10:52;;;;;;;11.07;7.22;;;;;;;3.65;100.00;62372.13;5029639;28;20202;-79
2023/03/04 04:13:20;;;;;;;8.38;6.53;;;;;;;3.60;100.00;62368.97;5031234;28;20223;-78
2023/03/04 04:15:47;;;;;;;9.57;7.10;;;;;;;3.39;100.00;62348.41;5028106;28;20203;-79
2023/03/04 04:18:13;;;;;;;12.18;6.43;;;;;;;3.42;100.00;62343.94;5032522;28;20203;-77
2023/03/04 04:20:40;;;;;;;9.05;6.43;;;;;;;3.34;100.00;62340.25;5026671;28;20273;-79
2023/03/04 04:23:07;;;;;;;9.02;5.88;;;;;;;3.02;100.00;62307.84;5029449;28;20265;-79
2023/03/04 04:25:34;;;;;;;13.15;7.47;;;;;;;3.14;100.00;62324.72;5026930;28;20249;-78
2023/03/04 04:28:02;;;;;;;14.98;6.70;;;;;;;3.12;100.00;62315.63;5027535;28;20227;-78
2023/03/04 04:30:29;;;;;;;11.90;6.78;;;;;;;3.05;100.00;62310.44;5029138;28;20198;-78
2023/03/04 04:33:00;;;;;;;12.05;7.28;;;;;;;3.04;100.00;62309.91;5026844;28;20214;-78
2023/03/04 04:35:29;;;;;;;8.80;6.05;;;;;;;3.13;100.00;62318.66;5027570;28;20237;-77
2023/03/04 04:37:57;;;;;;;8.73;6.53;;;;;;;3.20;100.00;62326.38;5028608;28;20222;-78
2023/03/04 04:40:24;;;;;;;9.88;6.00;;;;;;;3.25;100.00;62331.00;5027954;28;20223;-78
2023/03/04 04:42:51;;;;;;;7.53;6.00;;;;;;;3.26;100.00;62337.56;5018833;28;20219;-78
2023/03/04 04:45:19;;;;;;;8.02;5.80;;;;;;;3.22;100.00;62325.41;5009783;28;20235;-78
2023/03/04 04:47:46;;;;;;;8.88;5.68;;;;;;;3.20;100.00;62326.38;5024341;28;20536;-78
2023/03/04 04:50:13;;;;;;;8.07;5.97;;;;;;;3.25;100.00;62334.03;5026302;28;20230;-78
2023/03/04 04:52:40;;;;;;;13.35;7.22;;;;;;;3.26;100.00;62332.53;5025474;28;20283;-78
2023/03/04 04:55:08;;;;;;;10.63;6.28;;;;;;;3.31;100.00;62337.16;5028789;28;20249;-78
2023/03/04 04:57:35;;;;;;;12.13;6.28;;;;;;;3.30;100.00;62341.16;5027925;28;20422;-78
2023/03/04 05:00:02;;;;;;;13.35;6.63;;;;;;;3.30;100.00;62339.16;5027135;28;20237;-78
2023/03/04 05:02:30;;;;;;;13.10;7.50;;;;;;;3.30;100.00;62336.13;5026507;28;20218;-79
2023/03/04 05:04:57;;;;;;;11.35;7.75;;;;;;;3.25;100.00;62331.00;5029144;28;20238;-80
2023/03/04 05:07:24;;;;;;;13.05;7.35;;;;;;;3.31;100.00;62342.19;5030044;28;20210;-80
2023/03/04 05:09:51;;;;;;;14.65;7.10;;;;;;;3.38;100.00;62349.41;5028136;28;20251;-80
2023/03/04 05:12:18;;;;;;;11.93;7.90;;;;;;;3.31;100.00;62337.16;5033648;28;20246;-81
2023/03/04 05:14:45;;;;;;;10.82;6.95;;;;;;;3.39;100.00;62345.91;5031859;28;20261;-79
2023/03/04 05:17:12;;;;;;;13.00;6.78;;;;;;;3.33;100.00;62339.72;5031062;28;20227;-83
2023/03/04 05:19:41;;;;;;;11.57;7.63;;;;;;;3.43;100.00;62350.00;5028230;28;20203;-81
2023/03/04 05:22:08;;;;;;;12.10;7.03;;;;;;;3.49;100.00;62353.66;5031393;28;20218;-80
2023/03/04 05:24:35;;;;;;;11.55;6.90;;;;;;;3.59;100.00;62367.97;5023556;28;20203;-79
2023/03/04 05:27:02;;;;;;;11.15;6.82;;;;;;;3.63;100.00;62367.03;5023026;28;20214;-80
2023/03/04 05:29:30;;;;;;;15.93;7.25;;;;;;;3.75;100.00;62379.88;5031992;28;20210;-82
2023/03/04 05:31:57;;;;;;;9.63;6.75;;;;;;;3.86;100.00;62393.72;5029113;28;20217;-80
2023/03/04 05:34:24;;;;;;;12.07;7.63;;;;;;;3.90;100.00;62400.34;5029068;28;20234;-79
2023/03/04 05:36:52;;;;;;;8.70;6.70;;;;;;;4.07;100.00;62414.81;5024525;28;20236;-79
2023/03/04 05:39:19;;;;;;;10.32;6.40;;;;;;;4.16;100.00;62421.56;5029501;28;20245;-78
2023/03/04 05:41:46;;;;;;;10.93;6.68;;;;;;;4.26;100.00;62434.34;5027932;28;20385;-80
2023/03/04 05:44:14;;;;;;;10.35;7.00;;;;;;;4.37;100.00;62448.19;5028612;28;20200;-80
2023/03/04 05:46:41;;;;;;;12.68;7.25;;;;;;;4.34;100.00;62442.59;5027035;28;20284;-80
2023/03/04 05:49:08;;;;;;;9.57;6.88;;;;;;;4.38;100.00;62449.72;5027709;28;20206;-80
2023/03/04 05:51:36;;;;;;;11.10;6.82;;;;;;;4.40;100.00;62448.75;5027049;28;20250;-78
2023/03/04 05:54:04;;;;;;;11.32;7.40;;;;;;;4.59;100.00;62471.34;5023550;28;20452;-78
2023/03/04 05:56:32;;;;;;;12.57;7.35;;;;;;;4.72;100.00;62477.16;5028421;28;20269;-79
2023/03/04 05:59:00;;;;;;;10.75;7.32;;;;;;;4.77;100.00;62491.88;5031121;28;20237;-79
2023/03/04 06:01:27;;;;;;;9.98;6.25;;;;;;;4.91;100.00;62500.72;5026880;28;20219;-80
2023/03/04 06:03:54;;;;;;;10.93;7.10;;;;;;;4.97;100.00;62509.44;5023673;28;20492;-78
2023/03/04 06:06:21;;;;;;;8.75;6.40;;;;;;;5.11;100.00;62523.88;5025823;28;20215;-78
2023/03/04 06:08:48;;;;;;;7.75;6.18;;;;;;;5.08;100.00;62516.22;5025570;28;20242;-78
2023/03/04 06:11:16;;;;;;;11.52;6.80;;;;;;;5.03;100.00;62513.59;5015894;28;20308;-80
2023/03/04 06:13:43;;;;;;;9.85;6.57;;;;;;;5.10;100.00;62520.31;5014496;28;20207;-81
2023/03/04 06:16:10;;;;;;;8.10;6.28;;;;;;;4.85;100.00;62497.09;5017878;28;20462;-80
2023/03/04 06:18:37;;;;;;;7.93;5.95;;;;;;;4.77;100.00;62486.84;5016683;28;20208;-80
2023/03/04 06:21:04;;;;;;;7.65;6.28;;;;;;;4.80;100.00;62494.97;5026080;28;20210;-80
2023/03/04 06:23:31;;;;;;;11.55;7.30;;;;;;;4.85;100.00;62494.56;5027936;28;20205;-79
2023/03/04 06:25:59;;;;;;;9.65;6.55;;;;;;;4.96;100.00;62508.41;5020559;28;20270;-79
2023/03/04 06:28:28;;;;;;;13.85;8.95;;;;;;;4.94;100.00;62504.34;5028480;28;20380;-79
2023/03/04 06:30:56;;;;;;;14.30;9.35;;;;;;;4.86;100.00;62495.59;5028560;28;20237;-79
2023/03/04 06:33:22;;;;;;;14.40;8.68;;;;;;;4.96;100.00;62508.41;5028931;28;20203;-78
2023/03/04 06:35:54;;;;;;;14.38;9.07;;;;;;;5.09;100.00;62522.31;5027852;28;20558;-78
2023/03/04 06:38:21;;;;;;;13.02;9.30;;;;;;;5.26;100.00;62541.84;5024887;28;20210;-82
2023/03/04 06:40:48;;;;;;;11.93;8.68;;;;;;;5.29;100.00;62545.44;5022735;28;20199;-78
2023/03/04 06:43:15;;;;;;;16.33;9.43;;;;;;;5.16;100.00;62523.97;5026283;28;20194;-78
2023/03/04 06:45:43;;;;;;;18.13;10.05;;;;;;;5.37;100.00;62551.16;5029063;28;20214;-78
2023/03/04 06:48:11;;;;;;;17.25;10.00;;;;;;;5.26;100.00;62537.31;5019160;28;20278;-79
2023/03/04 06:50:39;;;;;;;11.75;9.57;;;;;;;5.39;100.00;62550.16;5024361;28;20208;-79
2023/03/04 06:53:06;;;;;;;16.42;9.50;;;;;;;5.25;100.00;62536.25;5027108;28;20282;-78
2023/03/04 06:55:33;;;;;;;14.00;9.13;;;;;;;5.24;100.00;62535.25;5026535;28;20234;-79
2023/03/04 06:58:00;;;;;;;14.15;9.02;;;;;;;5.20;100.00;62533.63;5015863;28;20273;-79
2023/03/04 07:00:27;;;;;;;17.90;9.63;;;;;;;5.17;100.00;62532.56;5019806;28;20425;-79
2023/03/04 07:02:55;;;;;;;19.40;9.95;;;;;;;5.10;100.00;62520.81;5018022;28;20244;-78
2023/03/04 07:05:22;;;;;;;19.23;9.80;;;;;;;4.97;100.00;62509.44;5013879;28;20234;-78
2023/03/04 07:07:49;;;;;;;18.13;10.52;;;;;;;4.99;100.00;62508.97;5012624;28;20448;-79
2023/03/04 07:10:16;;;;;;;15.95;9.80;;;;;;;4.84;100.00;62493.53;5011135;28;20202;-78
2023/03/04 07:12:45;;;;;;;13.10;9.40;;;;;;;4.87;100.00;62497.13;5016575;28;20219;-78
2023/03/04 07:15:12;;;;;;;16.80;10.63;;;;;;;4.97;100.00;62507.41;5024046;28;20281;-78
2023/03/04 07:17:39;;;;;;;18.95;11.10;;;;;;;4.77;100.00;62489.34;5027396;28;20452;-78
2023/03/04 07:20:09;;;;;;;14.63;10.80;;;;;;;4.82;100.00;62491.47;5026145;28;20202;-79
2023/03/04 07:22:36;;;;;;;16.02;10.32;;;;;;;4.91;100.00;62495.69;5024216;28;20214;-77
2023/03/04 07:25:04;;;;;;;17.00;10.57;;;;;;;5.10;100.00;62523.34;5020001;28;20203;-77
2023/03/04 07:27:31;;;;;;;15.38;10.88;;;;;;;5.18;100.00;62528.53;5022923;28;20214;-76
2023/03/04 07:29:58;;;;;;;16.27;10.52;;;;;;;5.13;100.00;62520.84;5023196;28;20269;-77
2023/03/04 07:32:25;;;;;;;16.67;10.82;;;;;;;5.26;100.00;62536.78;5021123;28;20222;-77
2023/03/04 07:34:52;;;;;;;21.38;10.70;;;;;;;5.36;100.00;62547.59;5021943;28;20275;-77
2023/03/04 07:37:20;;;;;;;17.52;10.55;;;;;;;5.62;100.00;62574.38;5027748;28;20213;-79
2023/03/04 07:39:47;;;;;;;16.52;10.70;;;;;;;5.83;100.00;62596.03;5028315;28;20202;-77
2023/03/04 07:42:14;;;;;;;14.57;9.40;;;;;;;6.02;100.00;62615.09;5024756;28;21266;-78
2023/03/04 07:44:40;;;;;;;18.00;10.88;;;;;;;5.81;100.00;62593.97;5024835;28;20221;-80
2023/03/04 07:47:07;;;;;;;17.75;10.40;;;;;;;5.95;100.00;62609.91;5029043;28;20222;-78
2023/03/04 07:49:34;;;;;;;14.48;10.20;;;;;;;6.13;100.00;62634.03;5029573;28;20203;-79
2023/03/04 07:52:04;;;;;;;15.65;10.43;;;;;;;6.04;100.00;62617.16;5025102;28;20226;-79
2023/03/04 07:54:32;;;;;;;14.40;10.27;;;;;;;5.90;100.00;62609.81;5029201;28;20242;-77
2023/03/04 07:56:59;;;;;;;15.82;9.82;;;;;;;5.94;100.00;62604.31;5027344;28;20269;-79
2023/03/04 07:59:26;;;;;;;15.30;10.63;;;;;;;5.79;100.00;62591.38;5028955;28;20214;-79
2023/03/04 08:01:53;;;;;;;15.65;10.27;;;;;;;5.64;100.00;62575.94;5027171;28;20225;-80
2023/03/04 08:04:19;;;;;;;16.45;11.80;;;;;;;5.50;100.00;62562.03;5031787;28;20273;-79
2023/03/04 08:06:47;;;;;;;15.02;10.63;;;;;;;5.69;100.00;62581.06;5027272;28;20226;-78
2023/03/04 08:09:15;;;;;;;16.27;11.23;;;;;;;5.70;100.00;62582.63;5024008;28;20206;-78
2023/03/04 08:11:43;;;;;;;17.17;11.00;;;;;;;5.88;100.00;62600.16;5025993;28;20305;-78
2023/03/04 08:14:11;;;;;;;17.52;11.20;;;;;;;6.10;100.00;62625.34;5028739;28;20281;-80
2023/03/04 08:16:38;;;;;;;15.88;11.05;;;;;;;6.10;100.00;62625.34;5031448;28;20253;-79
2023/03/04 08:19:07;;;;;;;20.17;10.95;;;;;;;5.88;100.00;62608.25;5031570;28;20217;-80
2023/03/04 08:21:35;;;;;;;16.38;10.88;;;;;;;5.98;100.00;62615.50;5029473;28;20234;-79
2023/03/04 08:24:06;;;;;;;17.00;10.85;;;;;;;6.19;100.00;62632.09;5025875;28;20393;-78
2023/03/04 08:26:40;;;;;;;16.65;10.70;;;;;;;6.14;100.00;62627.47;5028130;28;20253;-80
2023/03/04 08:29:10;;;;;;;19.27;11.15;;;;;;;6.38;100.00;62654.22;5010831;28;20196;-81
2023/03/04 08:31:38;;;;;;;18.92;12.57;;;;;;;6.51;100.00;62663.09;5015980;28;20230;-79
2023/03/04 08:34:06;;;;;;;16.52;11.65;;;;;;;6.39;100.00;62655.25;5030804;28;20274;-79
2023/03/04 08:36:33;;;;;;;19.95;12.38;;;;;;;6.58;100.00;62674.84;5028836;28;20238;-81
2023/03/04 08:39:00;;;;;;;22.55;13.38;;;;;;;6.35;100.00;62654.16;5031746;28;20195;-80
2023/03/04 08:41:28;;;;;;;20.83;12.38;;;;;;;6.74;100.00;62691.88;5028582;28;20288;-79
2023/03/04 08:43:55;;;;;;;18.45;12.95;;;;;;;6.73;100.00;62690.81;5030801;28;20445;-78
2023/03/04 08:46:23;;;;;;;20.27;12.35;;;;;;;6.79;100.00;62693.97;5027433;28;20325;-80
2023/03/04 08:48:50;;;;;;;25.50;12.55;;;;;;;6.80;100.00;62698.03;5030063;28;20281;-81
2023/03/04 08:51:16;;;;;;;19.52;11.82;;;;;;;7.05;100.00;62723.31;5030312;28;20550;-80
2023/03/04 08:53:44;;;;;;;19.08;12.95;;;;;;;7.39;100.00;62753.34;5028324;28;20246;-78
2023/03/04 08:56:11;;;;;;;20.75;12.57;;;;;;;7.44;100.00;62763.56;5016019;28;20239;-79
2023/03/04 08:58:39;;;;;;;22.30;13.65;;;;;;;6.98;100.00;62713.56;5010658;28;20207;-78
2023/03/04 09:01:08;;;;;;;29.25;15.90;;;;;;;7.34;100.00;62750.19;5009966;28;20215;-83
2023/03/04 09:03:37;;;;;;;20.48;13.38;;;;;;;7.69;100.00;62791.91;5015662;28;20221;-80
2023/03/04 09:06:06;;;;;;;21.70;12.48;;;;;;;7.87;100.00;62802.88;5029459;28;20211;-78
2023/03/04 09:08:34;;;;;;;21.17;12.15;;;;;;;8.01;100.00;62814.81;5030362;28;20237;-80
2023/03/04 09:11:02;;;;;;;16.50;11.88;;;;;;;7.45;100.00;62764.09;5031485;28;20203;-79
2023/03/04 09:13:31;;;;;;;18.50;11.70;;;;;;;7.28;100.00;62741.47;5028466;28;20203;-79
2023/03/04 09:15:59;;;;;;;16.95;11.55;;;;;;;7.30;100.00;62751.66;5029962;28;20234;-80
2023/03/04 09:18:26;;;;;;;17.73;12.40;;;;;;;7.13;100.00;62731.06;5031194;28;20205;-80
2023/03/04 09:20:55;;;;;;;19.10;10.93;;;;;;;7.49;100.00;62766.19;5030836;28;20198;-79
2023/03/04 09:23:22;;;;;;;16.75;11.00;;;;;;;7.58;100.00;62777.50;5029160;28;20206;-81
2023/03/04 09:25:49;;;;;;;21.05;12.07;;;;;;;7.66;100.00;62788.81;5033030;28;20229;-78
2023/03/04 09:28:17;;;;;;;17.60;12.07;;;;;;;7.40;100.00;62756.38;5030843;28;20195;-80
2023/03/04 09:30:44;;;;;;;16.08;10.55;;;;;;;7.66;100.00;62783.22;5022192;28;20203;-80
2023/03/04 09:33:11;;;;;;;17.70;11.40;;;;;;;7.96;100.00;62816.72;5029690;28;20237;-82
2023/03/04 09:35:38;;;;;;;22.85;12.48;;;;;;;8.09;100.00;62828.13;5032521;28;20230;-77
2023/03/04 09:38:07;;;;;;;19.50;12.40;;;;;;;8.37;100.00;62856.53;5030565;28;20290;-80
2023/03/04 09:40:41;;;;;;;20.08;12.65;;;;;;;8.70;99.87;62892.66;5019281;28;20211;-79
2023/03/04 09:43:18;;;;;;;18.55;12.10;;;;;;;9.05;96.72;62926.81;5029951;28;20226;-80
2023/03/04 09:45:50;;;;;;;17.95;11.50;;;;;;;9.17;93.50;62941.25;5031107;28;20194;-80
2023/03/04 09:48:21;;;;;;;16.52;11.43;;;;;;;9.21;94.48;62953.00;5030171;28;20227;-79
2023/03/04 09:51:06;;;;;;;18.95;11.02;;;;;;;9.42;92.23;62964.56;5030213;28;20209;-80
2023/03/04 09:53:40;;;;;;;18.05;11.48;;;;;;;9.26;93.27;62948.00;5030950;28;20253;-78
2023/03/04 09:56:07;;;;;;;18.85;12.43;;;;;;;9.15;91.40;62941.72;5032726;28;20249;-80
2023/03/04 09:58:46;;;;;;;20.50;13.15;;;;;;;8.88;92.88;62908.72;5027392;28;20283;-79
2023/03/04 10:01:20;;;;;;;22.33;13.65;;;;;;;9.51;93.84;62976.38;5028777;28;20222;-80
2023/03/04 10:03:54;;;;;;;18.75;13.20;;;;;;;9.70;89.83;62992.97;5029913;28;20195;-79
2023/03/04 10:06:23;;;;;;;16.30;11.93;;;;;;;10.10;87.41;63037.44;5025321;28;20219;-80
2023/03/04 10:08:56;;;;;;;22.73;13.38;;;;;;;9.59;89.52;62979.06;5026920;28;20211;-80
2023/03/04 10:11:27;;;;;;;23.42;14.77;;;;;;;9.36;91.18;62960.88;5032287;28;20282;-80
2023/03/04 10:14:03;;;;;;;23.60;15.68;;;;;;;9.49;92.22;62971.25;5029553;28;20218;-80
2023/03/04 10:16:35;;;;;;;22.13;13.90;;;;;;;9.23;93.36;62952.53;5028077;28;20234;-79
2023/03/04 10:19:20;;;;;;;22.15;14.55;;;;;;;8.89;94.68;62915.34;5030169;28;20198;-81
2023/03/04 10:21:49;;;;;;;28.23;16.65;;;;;;;8.70;92.84;62892.66;5018005;28;20219;-81
2023/03/04 10:24:21;;;;;;;24.20;13.38;;;;;;;8.45;94.92;62864.81;5014677;28;20215;-80
2023/03/04 10:26:53;;;;;;;20.85;12.90;;;;;;;8.79;94.51;62905.03;5031237;28;20265;-81
2023/03/04 10:29:23;;;;;;;18.05;12.18;;;;;;;8.93;93.50;62916.44;5031403;28;20207;-81
2023/03/04 10:31:51;;;;;;;16.75;11.80;;;;;;;9.11;90.75;62932.50;5028278;28;20226;-80
2023/03/04 10:34:18;;;;;;;22.20;13.23;;;;;;;8.55;95.61;62874.63;5024837;28;20420;-79
2023/03/04 10:36:56;;;;;;;18.02;13.15;;;;;;;8.50;99.48;62877.59;5017926;28;20234;-80
2023/03/04 10:39:27;;;;;;;25.27;14.95;;;;;;;8.07;100.00;62828.63;5030640;28;20391;-81
2023/03/04 10:41:57;;;;;;;19.65;13.90;;;;;;;8.12;100.00;62833.78;5030817;28;20227;-79
2023/03/04 10:44:25;;;;;;;23.38;14.05;;;;;;;8.19;100.00;62841.00;5027618;28;20258;-80
2023/03/04 10:46:55;;;;;;;23.95;14.60;;;;;;;8.69;99.69;62894.69;5025701;28;20523;-79
2023/03/04 10:49:24;;;;;;;22.20;14.45;;;;;;;8.94;97.62;62920.00;5027474;28;20526;-79
2023/03/04 10:51:53;;;;;;;19.08;13.75;;;;;;;9.13;96.11;62934.56;5026678;28;20458;-80
2023/03/04 10:54:30;;;;;;;23.05;14.52;;;;;;;9.08;96.91;62929.91;5028880;28;20210;-80
2023/03/04 10:57:01;;;;;;;26.73;14.55;;;;;;;9.30;96.14;62957.72;5028909;28;20226;-80
2023/03/04 10:59:49;;;;;;;22.98;14.63;;;;;;;9.48;91.91;62975.81;5024897;28;20202;-80
2023/03/04 11:02:25;;;;;;;23.92;13.05;;;;;;;9.49;91.32;62976.34;5027979;28;20223;-80
2023/03/04 11:04:55;;;;;;;20.92;13.02;;;;;;;9.76;90.56;63001.72;5030955;28;20225;-81
2023/03/04 11:07:23;;;;;;;19.55;13.32;;;;;;;9.81;90.50;63006.91;5031186;28;20554;-79
2023/03/04 11:09:52;;;;;;;22.20;13.57;;;;;;;10.37;88.36;63062.81;5027368;28;20227;-80
2023/03/04 11:12:31;;;;;;;21.55;13.70;;;;;;;10.82;83.05;63113.97;5023674;28;20222;-83
2023/03/04 11:14:59;;;;;;;22.83;13.32;;;;;;;10.77;83.06;63108.28;5030799;28;20535;-82
2023/03/04 11:17:28;;;;;;;18.85;13.15;;;;;;;10.72;84.54;63100.53;5027830;28;20230;-82
2023/03/04 11:20:01;;;;;;;21.20;14.35;;;;;;;10.61;84.03;63089.16;5030721;28;20214;-80
2023/03/04 11:22:30;;;;;;;20.55;14.30;;;;;;;9.93;84.92;63022.38;5029756;28;20318;-80
2023/03/04 11:25:06;;;;;;;18.65;13.60;;;;;;;9.83;89.44;63006.94;5031739;28;20198;-82
2023/03/04 11:27:40;;;;;;;20.92;13.68;;;;;;;9.38;90.89;62962.94;5027746;28;20258;-82